< < Back
Terminal Aerodrome Forecast


Current Version              Previous Versions:   1  2  3  4  5  6  7  8  9  

Terminal Aerodrome Forecast

951
FTUS44 KMRX 051120
TAFCHA
TAF
KCHA 051120Z 0512/0612 35010KT P6SM SCT015 OVC025
      TEMPO 0512/0516 4SM -RA BR OVC008
     FM051600 01014KT 5SM -PL BR OVC016
     FM051900 35015KT P6SM OVC020
     FM052200 36010KT P6SM SCT020 OVC035
     FM060100 01008KT P6SM SCT030
     FM060700 01006KT P6SM BKN015=



Latest METAR

228
SAUS80 KWBC 060900
MTRCHA
METAR KCHA 060853Z AUTO 35011KT 10SM OVC023 M04/M11 A3045 RMK AO2 SLP319
T10441106 58002


USA.gov is the U.S. government's official web portal to all federal, state and local government web resources and services.